sensor_id;sensor_type;location;lat;lon;timestamp;pressure;altitude;pressure_sealevel;temperature;humidity
41866;BME280;27539;43.222;27.558;2023-08-31T00:01:31;99632.75;;;25.07;100.00
41866;BME280;27539;43.222;27.558;2023-08-31T00:03:59;99628.63;;;25.04;100.00
41866;BME280;27539;43.222;27.558;2023-08-31T00:06:25;99633.97;;;25.06;100.00
41866;BME280;27539;43.222;27.558;2023-08-31T00:08:50;99629.63;;;25.12;100.00
41866;BME280;27539;43.222;27.558;2023-08-31T00:11:16;99634.59;;;25.15;100.00
41866;BME280;27539;43.222;27.558;2023-08-31T00:13:42;99633.78;;;25.14;100.00
41866;BME280;27539;43.222;27.558;2023-08-31T00:16:08;99646.47;;;25.17;100.00
41866;BME280;27539;43.222;27.558;2023-08-31T00:18:35;99635.44;;;24.99;100.00
41866;BME280;27539;43.222;27.558;2023-08-31T00:21:02;99645.72;;;25.04;100.00
41866;BME280;27539;43.222;27.558;2023-08-31T00:23:28;99638.47;;;25.07;100.00
41866;BME280;27539;43.222;27.558;2023-08-31T00:25:53;99638.63;;;25.14;100.00
41866;BME280;27539;43.222;27.558;2023-08-31T00:28:19;99593.13;;;24.82;100.00
41866;BME280;27539;43.222;27.558;2023-08-31T00:30:45;99605.50;;;24.74;100.00
41866;BME280;27539;43.222;27.558;2023-08-31T00:33:12;99622.22;;;24.75;100.00
41866;BME280;27539;43.222;27.558;2023-08-31T00:35:37;99656.34;;;24.91;100.00
41866;BME280;27539;43.222;27.558;2023-08-31T00:38:03;99652.78;;;24.78;100.00
41866;BME280;27539;43.222;27.558;2023-08-31T00:40:29;99657.38;;;24.83;100.00
41866;BME280;27539;43.222;27.558;2023-08-31T00:42:57;99655.16;;;24.92;100.00
41866;BME280;27539;43.222;27.558;2023-08-31T00:45:22;99642.59;;;24.93;100.00
41866;BME280;27539;43.222;27.558;2023-08-31T00:47:49;99652.50;;;24.99;100.00
41866;BME280;27539;43.222;27.558;2023-08-31T00:50:15;99661.22;;;25.07;100.00
41866;BME280;27539;43.222;27.558;2023-08-31T00:52:41;99658.47;;;24.94;100.00
41866;BME280;27539;43.222;27.558;2023-08-31T00:55:10;99652.38;;;24.80;100.00
41866;BME280;27539;43.222;27.558;2023-08-31T00:57:35;99672.22;;;24.76;100.00
41866;BME280;27539;43.222;27.558;2023-08-31T01:00:01;99672.84;;;24.70;100.00
41866;BME280;27539;43.222;27.558;2023-08-31T01:02:47;99678.50;;;24.54;100.00
41866;BME280;27539;43.222;27.558;2023-08-31T01:08:47;99645.31;;;24.18;100.00
41866;BME280;27539;43.222;27.558;2023-08-31T01:11:36;99702.09;;;24.42;100.00
41866;BME280;27539;43.222;27.558;2023-08-31T01:14:13;99694.22;;;24.23;100.00
41866;BME280;27539;43.222;27.558;2023-08-31T01:16:43;99702.31;;;24.09;100.00
41866;BME280;27539;43.222;27.558;2023-08-31T01:22:14;99709.22;;;23.71;100.00
41866;BME280;27539;43.222;27.558;2023-08-31T01:24:42;99708.28;;;23.79;100.00
41866;BME280;27539;43.222;27.558;2023-08-31T01:27:09;99706.28;;;23.80;100.00
41866;BME280;27539;43.222;27.558;2023-08-31T01:29:35;99713.06;;;23.75;100.00
41866;BME280;27539;43.222;27.558;2023-08-31T01:32:05;99710.22;;;23.75;100.00
41866;BME280;27539;43.222;27.558;2023-08-31T01:34:52;99716.44;;;23.68;100.00
41866;BME280;27539;43.222;27.558;2023-08-31T01:37:24;99709.38;;;23.50;100.00
41866;BME280;27539;43.222;27.558;2023-08-31T01:42:36;99721.78;;;23.45;100.00
41866;BME280;27539;43.222;27.558;2023-08-31T01:45:03;99725.09;;;23.47;100.00
41866;BME280;27539;43.222;27.558;2023-08-31T01:47:30;99715.97;;;23.42;100.00
41866;BME280;27539;43.222;27.558;2023-08-31T01:49:56;99730.63;;;23.44;100.00
41866;BME280;27539;43.222;27.558;2023-08-31T01:52:21;99719.41;;;23.35;100.00
41866;BME280;27539;43.222;27.558;2023-08-31T01:54:47;99715.13;;;23.29;100.00
41866;BME280;27539;43.222;27.558;2023-08-31T01:57:13;99710.88;;;23.11;100.00
41866;BME280;27539;43.222;27.558;2023-08-31T01:59:38;99730.28;;;23.21;100.00
41866;BME280;27539;43.222;27.558;2023-08-31T02:02:04;99726.84;;;23.15;100.00
41866;BME280;27539;43.222;27.558;2023-08-31T02:04:29;99732.41;;;23.24;100.00
41866;BME280;27539;43.222;27.558;2023-08-31T02:06:55;99741.88;;;23.28;100.00
41866;BME280;27539;43.222;27.558;2023-08-31T02:09:20;99730.84;;;23.14;100.00
41866;BME280;27539;43.222;27.558;2023-08-31T02:11:46;99736.25;;;23.07;100.00
41866;BME280;27539;43.222;27.558;2023-08-31T02:14:11;99721.63;;;23.05;100.00
41866;BME280;27539;43.222;27.558;2023-08-31T02:16:37;99738.88;;;23.12;100.00
41866;BME280;27539;43.222;27.558;2023-08-31T02:19:02;99723.16;;;23.02;100.00
41866;BME280;27539;43.222;27.558;2023-08-31T02:21:28;99740.28;;;23.06;100.00
41866;BME280;27539;43.222;27.558;2023-08-31T02:23:53;99745.72;;;22.99;100.00
41866;BME280;27539;43.222;27.558;2023-08-31T02:26:19;99752.47;;;23.06;100.00
41866;BME280;27539;43.222;27.558;2023-08-31T02:28:44;99734.50;;;23.02;100.00
41866;BME280;27539;43.222;27.558;2023-08-31T02:31:10;99749.03;;;23.01;100.00
41866;BME280;27539;43.222;27.558;2023-08-31T02:33:37;99744.31;;;23.05;100.00
41866;BME280;27539;43.222;27.558;2023-08-31T02:36:02;99722.88;;;22.95;100.00
41866;BME280;27539;43.222;27.558;2023-08-31T02:38:28;99725.63;;;23.04;100.00
41866;BME280;27539;43.222;27.558;2023-08-31T02:40:54;99746.91;;;22.98;100.00
41866;BME280;27539;43.222;27.558;2023-08-31T02:43:19;99747.16;;;23.05;100.00
41866;BME280;27539;43.222;27.558;2023-08-31T02:45:45;99707.34;;;22.80;100.00
41866;BME280;27539;43.222;27.558;2023-08-31T02:48:10;99735.13;;;22.87;100.00
41866;BME280;27539;43.222;27.558;2023-08-31T02:50:36;99725.78;;;22.86;100.00
41866;BME280;27539;43.222;27.558;2023-08-31T02:53:02;99733.72;;;22.93;100.00
41866;BME280;27539;43.222;27.558;2023-08-31T02:55:27;99735.50;;;22.85;100.00
41866;BME280;27539;43.222;27.558;2023-08-31T02:57:53;99747.16;;;22.84;100.00
41866;BME280;27539;43.222;27.558;2023-08-31T03:00:19;99697.19;;;22.46;100.00
41866;BME280;27539;43.222;27.558;2023-08-31T03:02:50;99757.44;;;22.76;100.00
41866;BME280;27539;43.222;27.558;2023-08-31T03:05:18;99754.81;;;22.71;100.00
41866;BME280;27539;43.222;27.558;2023-08-31T03:07:43;99748.59;;;22.57;100.00
41866;BME280;27539;43.222;27.558;2023-08-31T03:10:09;99752.44;;;22.40;100.00
41866;BME280;27539;43.222;27.558;2023-08-31T03:12:35;99751.38;;;22.44;100.00
41866;BME280;27539;43.222;27.558;2023-08-31T03:15:01;99748.53;;;22.44;100.00
41866;BME280;27539;43.222;27.558;2023-08-31T03:17:26;99728.25;;;22.21;100.00
41866;BME280;27539;43.222;27.558;2023-08-31T03:19:52;99757.41;;;22.43;100.00
41866;BME280;27539;43.222;27.558;2023-08-31T03:22:17;99767.22;;;22.46;100.00
41866;BME280;27539;43.222;27.558;2023-08-31T03:24:43;99766.25;;;22.41;100.00
41866;BME280;27539;43.222;27.558;2023-08-31T03:27:08;99762.03;;;22.48;100.00
41866;BME280;27539;43.222;27.558;2023-08-31T03:29:34;99753.38;;;22.44;100.00
41866;BME280;27539;43.222;27.558;2023-08-31T03:32:00;99757.63;;;22.38;100.00
41866;BME280;27539;43.222;27.558;2023-08-31T03:34:30;99760.19;;;22.31;100.00
41866;BME280;27539;43.222;27.558;2023-08-31T03:36:56;99759.06;;;22.23;100.00
41866;BME280;27539;43.222;27.558;2023-08-31T03:39:21;99767.50;;;22.32;100.00
41866;BME280;27539;43.222;27.558;2023-08-31T03:41:47;99700.88;;;22.05;100.00
41866;BME280;27539;43.222;27.558;2023-08-31T03:44:12;99759.00;;;22.32;100.00
41866;BME280;27539;43.222;27.558;2023-08-31T03:46:38;99757.91;;;22.45;100.00
41866;BME280;27539;43.222;27.558;2023-08-31T03:49:03;99760.16;;;22.52;100.00
41866;BME280;27539;43.222;27.558;2023-08-31T03:51:29;99758.63;;;22.54;100.00
41866;BME280;27539;43.222;27.558;2023-08-31T03:53:54;99759.94;;;22.57;100.00
41866;BME280;27539;43.222;27.558;2023-08-31T03:56:22;99767.28;;;22.58;100.00
41866;BME280;27539;43.222;27.558;2023-08-31T03:58:47;99771.16;;;22.53;100.00
41866;BME280;27539;43.222;27.558;2023-08-31T04:01:13;99756.66;;;22.55;100.00
41866;BME280;27539;43.222;27.558;2023-08-31T04:03:40;99763.88;;;22.64;100.00
41866;BME280;27539;43.222;27.558;2023-08-31T04:06:05;99777.16;;;22.73;100.00
41866;BME280;27539;43.222;27.558;2023-08-31T04:08:31;99773.28;;;22.77;100.00
41866;BME280;27539;43.222;27.558;2023-08-31T04:10:56;99784.75;;;22.81;100.00
41866;BME280;27539;43.222;27.558;2023-08-31T04:13:22;99785.84;;;22.89;100.00
41866;BME280;27539;43.222;27.558;2023-08-31T04:15:47;99783.97;;;22.93;100.00
41866;BME280;27539;43.222;27.558;2023-08-31T04:18:13;99792.47;;;22.93;100.00
41866;BME280;27539;43.222;27.558;2023-08-31T04:20:38;99798.44;;;23.00;100.00
41866;BME280;27539;43.222;27.558;2023-08-31T04:23:04;99803.66;;;23.10;100.00
41866;BME280;27539;43.222;27.558;2023-08-31T04:25:30;99763.97;;;22.89;100.00
41866;BME280;27539;43.222;27.558;2023-08-31T04:27:58;99807.59;;;23.18;100.00
41866;BME280;27539;43.222;27.558;2023-08-31T04:30:24;99814.38;;;23.38;100.00
41866;BME280;27539;43.222;27.558;2023-08-31T04:32:49;99786.56;;;23.31;100.00
41866;BME280;27539;43.222;27.558;2023-08-31T04:35:15;99804.44;;;23.44;100.00
41866;BME280;27539;43.222;27.558;2023-08-31T04:37:40;99808.34;;;23.51;100.00
41866;BME280;27539;43.222;27.558;2023-08-31T04:40:06;99819.97;;;23.59;100.00
41866;BME280;27539;43.222;27.558;2023-08-31T04:42:34;99815.34;;;23.66;100.00
41866;BME280;27539;43.222;27.558;2023-08-31T04:44:59;99831.97;;;23.89;100.00
41866;BME280;27539;43.222;27.558;2023-08-31T04:47:25;99822.97;;;23.87;100.00
41866;BME280;27539;43.222;27.558;2023-08-31T04:49:50;99822.03;;;23.83;100.00
41866;BME280;27539;43.222;27.558;2023-08-31T04:52:15;99831.38;;;23.83;100.00
41866;BME280;27539;43.222;27.558;2023-08-31T04:54:41;99821.31;;;23.86;100.00
41866;BME280;27539;43.222;27.558;2023-08-31T04:57:06;99811.72;;;23.90;100.00
41866;BME280;27539;43.222;27.558;2023-08-31T04:59:32;99831.00;;;23.97;100.00
41866;BME280;27539;43.222;27.558;2023-08-31T05:01:58;99788.25;;;23.69;100.00
41866;BME280;27539;43.222;27.558;2023-08-31T05:04:23;99836.69;;;23.85;100.00
41866;BME280;27539;43.222;27.558;2023-08-31T05:06:49;99807.16;;;23.65;100.00
41866;BME280;27539;43.222;27.558;2023-08-31T05:09:14;99793.00;;;23.53;100.00
41866;BME280;27539;43.222;27.558;2023-08-31T05:11:40;99811.78;;;23.57;100.00
41866;BME280;27539;43.222;27.558;2023-08-31T05:14:05;99850.06;;;23.84;100.00
41866;BME280;27539;43.222;27.558;2023-08-31T05:16:30;99835.63;;;23.89;100.00
41866;BME280;27539;43.222;27.558;2023-08-31T05:18:56;99820.34;;;23.94;100.00
41866;BME280;27539;43.222;27.558;2023-08-31T05:21:21;99855.03;;;24.12;100.00
41866;BME280;27539;43.222;27.558;2023-08-31T05:23:47;99851.72;;;24.10;100.00
41866;BME280;27539;43.222;27.558;2023-08-31T05:26:12;99846.75;;;23.94;100.00
41866;BME280;27539;43.222;27.558;2023-08-31T05:28:39;99847.69;;;23.86;100.00
41866;BME280;27539;43.222;27.558;2023-08-31T05:31:04;99850.78;;;23.93;100.00
41866;BME280;27539;43.222;27.558;2023-08-31T05:33:30;99844.28;;;23.93;100.00
41866;BME280;27539;43.222;27.558;2023-08-31T05:36:00;99853.16;;;24.04;100.00
41866;BME280;27539;43.222;27.558;2023-08-31T05:38:27;99851.38;;;23.99;100.00
41866;BME280;27539;43.222;27.558;2023-08-31T05:40:53;99848.44;;;24.08;100.00
41866;BME280;27539;43.222;27.558;2023-08-31T05:43:18;99848.19;;;24.13;100.00
41866;BME280;27539;43.222;27.558;2023-08-31T05:45:43;99819.63;;;23.97;100.00
41866;BME280;27539;43.222;27.558;2023-08-31T05:48:09;99855.41;;;24.23;100.00
41866;BME280;27539;43.222;27.558;2023-08-31T05:50:34;99879.06;;;24.27;100.00
41866;BME280;27539;43.222;27.558;2023-08-31T05:53:02;99878.81;;;24.20;100.00
41866;BME280;27539;43.222;27.558;2023-08-31T05:55:27;99875.16;;;24.07;100.00
41866;BME280;27539;43.222;27.558;2023-08-31T05:57:53;99859.19;;;24.14;100.00
41866;BME280;27539;43.222;27.558;2023-08-31T06:00:18;99843.44;;;24.17;100.00
41866;BME280;27539;43.222;27.558;2023-08-31T06:02:44;99863.19;;;24.38;100.00
41866;BME280;27539;43.222;27.558;2023-08-31T06:05:12;99860.81;;;24.40;100.00
41866;BME280;27539;43.222;27.558;2023-08-31T06:07:41;99876.22;;;24.64;100.00
41866;BME280;27539;43.222;27.558;2023-08-31T06:10:07;99877.13;;;24.68;100.00
41866;BME280;27539;43.222;27.558;2023-08-31T06:12:32;99882.34;;;24.78;100.00
41866;BME280;27539;43.222;27.558;2023-08-31T06:14:58;99886.84;;;25.07;100.00
41866;BME280;27539;43.222;27.558;2023-08-31T06:17:23;99886.31;;;25.30;100.00
41866;BME280;27539;43.222;27.558;2023-08-31T06:19:49;99883.88;;;25.44;100.00
41866;BME280;27539;43.222;27.558;2023-08-31T06:22:14;99877.28;;;25.56;100.00
41866;BME280;27539;43.222;27.558;2023-08-31T06:24:40;99878.59;;;25.58;100.00
41866;BME280;27539;43.222;27.558;2023-08-31T06:27:06;99892.97;;;25.50;100.00
41866;BME280;27539;43.222;27.558;2023-08-31T06:29:31;99879.94;;;25.64;100.00
41866;BME280;27539;43.222;27.558;2023-08-31T06:31:57;99888.06;;;25.78;100.00
41866;BME280;27539;43.222;27.558;2023-08-31T06:34:22;99836.75;;;25.62;100.00
41866;BME280;27539;43.222;27.558;2023-08-31T06:36:48;99832.25;;;25.77;100.00
41866;BME280;27539;43.222;27.558;2023-08-31T06:39:13;99876.31;;;26.12;100.00
41866;BME280;27539;43.222;27.558;2023-08-31T06:41:39;99892.81;;;26.38;100.00
41866;BME280;27539;43.222;27.558;2023-08-31T06:44:04;99899.06;;;26.43;100.00
41866;BME280;27539;43.222;27.558;2023-08-31T06:46:30;99891.06;;;26.49;100.00
41866;BME280;27539;43.222;27.558;2023-08-31T06:49:00;99881.59;;;26.45;100.00
41866;BME280;27539;43.222;27.558;2023-08-31T06:51:25;99883.44;;;26.37;100.00
41866;BME280;27539;43.222;27.558;2023-08-31T06:53:51;99889.78;;;26.62;100.00
41866;BME280;27539;43.222;27.558;2023-08-31T06:56:16;99897.91;;;26.80;100.00
41866;BME280;27539;43.222;27.558;2023-08-31T06:58:41;99885.44;;;26.88;100.00
41866;BME280;27539;43.222;27.558;2023-08-31T07:01:08;99896.56;;;26.93;100.00
41866;BME280;27539;43.222;27.558;2023-08-31T07:03:34;99870.06;;;26.92;100.00
41866;BME280;27539;43.222;27.558;2023-08-31T07:06:00;99893.44;;;27.18;100.00
41866;BME280;27539;43.222;27.558;2023-08-31T07:08:25;99874.97;;;27.11;100.00
41866;BME280;27539;43.222;27.558;2023-08-31T07:10:51;99902.69;;;27.50;100.00
41866;BME280;27539;43.222;27.558;2023-08-31T07:13:16;99901.50;;;27.74;100.00
41866;BME280;27539;43.222;27.558;2023-08-31T07:15:41;99898.75;;;27.81;100.00
41866;BME280;27539;43.222;27.558;2023-08-31T07:18:07;99889.53;;;27.88;100.00
41866;BME280;27539;43.222;27.558;2023-08-31T07:20:33;99906.69;;;28.11;100.00
41866;BME280;27539;43.222;27.558;2023-08-31T07:22:58;99880.09;;;28.33;100.00
41866;BME280;27539;43.222;27.558;2023-08-31T07:25:24;99889.59;;;28.41;100.00
41866;BME280;27539;43.222;27.558;2023-08-31T07:27:50;99892.16;;;28.46;100.00
41866;BME280;27539;43.222;27.558;2023-08-31T07:30:16;99861.53;;;28.47;100.00
41866;BME280;27539;43.222;27.558;2023-08-31T07:32:41;99887.56;;;28.41;100.00
41866;BME280;27539;43.222;27.558;2023-08-31T07:35:07;99893.97;;;28.58;100.00
41866;BME280;27539;43.222;27.558;2023-08-31T07:37:33;99895.88;;;28.47;100.00
41866;BME280;27539;43.222;27.558;2023-08-31T07:39:58;99906.09;;;28.74;100.00
41866;BME280;27539;43.222;27.558;2023-08-31T07:42:24;99881.19;;;28.78;100.00
41866;BME280;27539;43.222;27.558;2023-08-31T07:44:49;99908.53;;;29.02;100.00
41866;BME280;27539;43.222;27.558;2023-08-31T07:47:15;99903.50;;;29.22;100.00
41866;BME280;27539;43.222;27.558;2023-08-31T07:49:41;99903.88;;;29.21;100.00
41866;BME280;27539;43.222;27.558;2023-08-31T07:52:06;99918.13;;;29.47;100.00
41866;BME280;27539;43.222;27.558;2023-08-31T07:54:32;99911.34;;;29.63;100.00
41866;BME280;27539;43.222;27.558;2023-08-31T07:56:57;99910.81;;;29.91;100.00
41866;BME280;27539;43.222;27.558;2023-08-31T07:59:23;99900.69;;;30.04;100.00
41866;BME280;27539;43.222;27.558;2023-08-31T08:01:48;99893.75;;;30.05;100.00
41866;BME280;27539;43.222;27.558;2023-08-31T08:04:14;99895.38;;;30.47;100.00
41866;BME280;27539;43.222;27.558;2023-08-31T08:06:39;99900.19;;;30.40;99.00
41866;BME280;27539;43.222;27.558;2023-08-31T08:09:05;99890.41;;;30.44;99.80
41866;BME280;27539;43.222;27.558;2023-08-31T08:11:31;99897.13;;;30.66;96.61
41866;BME280;27539;43.222;27.558;2023-08-31T08:13:56;99892.88;;;30.46;91.11
41866;BME280;27539;43.222;27.558;2023-08-31T08:16:22;99897.16;;;30.22;90.18
41866;BME280;27539;43.222;27.558;2023-08-31T08:18:47;99895.41;;;30.06;92.95
41866;BME280;27539;43.222;27.558;2023-08-31T08:21:13;99900.53;;;30.27;88.64
41866;BME280;27539;43.222;27.558;2023-08-31T08:23:38;99904.44;;;30.56;88.57
41866;BME280;27539;43.222;27.558;2023-08-31T08:26:04;99904.16;;;30.79;84.21
41866;BME280;27539;43.222;27.558;2023-08-31T08:28:29;99891.81;;;30.72;83.33
41866;BME280;27539;43.222;27.558;2023-08-31T08:30:55;99855.47;;;30.28;85.96
41866;BME280;27539;43.222;27.558;2023-08-31T08:33:20;99904.47;;;30.60;86.17
41866;BME280;27539;43.222;27.558;2023-08-31T08:35:46;99895.00;;;30.56;90.71
41866;BME280;27539;43.222;27.558;2023-08-31T08:38:11;99909.16;;;30.86;90.61
41866;BME280;27539;43.222;27.558;2023-08-31T08:40:37;99908.41;;;30.96;85.90
41866;BME280;27539;43.222;27.558;2023-08-31T08:43:06;99904.31;;;31.01;83.89
41866;BME280;27539;43.222;27.558;2023-08-31T08:45:39;99905.19;;;31.09;85.95
41866;BME280;27539;43.222;27.558;2023-08-31T08:48:07;99896.47;;;30.94;86.91
41866;BME280;27539;43.222;27.558;2023-08-31T08:50:33;99901.53;;;31.19;86.36
41866;BME280;27539;43.222;27.558;2023-08-31T08:53:05;99898.69;;;31.23;83.44
41866;BME280;27539;43.222;27.558;2023-08-31T08:55:32;99905.69;;;31.25;78.30
41866;BME280;27539;43.222;27.558;2023-08-31T08:57:58;99915.13;;;31.29;79.34
41866;BME280;27539;43.222;27.558;2023-08-31T09:00:26;99907.75;;;31.32;80.85
41866;BME280;27539;43.222;27.558;2023-08-31T09:02:51;99905.63;;;31.14;78.49
41866;BME280;27539;43.222;27.558;2023-08-31T09:05:17;99904.47;;;31.37;76.88
41866;BME280;27539;43.222;27.558;2023-08-31T09:13:01;99911.19;;;31.77;74.88
41866;BME280;27539;43.222;27.558;2023-08-31T09:15:46;99903.41;;;31.88;66.25
41866;BME280;27539;43.222;27.558;2023-08-31T09:18:16;99878.34;;;31.89;69.65
41866;BME280;27539;43.222;27.558;2023-08-31T09:20:46;99912.88;;;31.89;70.95
41866;BME280;27539;43.222;27.558;2023-08-31T09:23:13;99915.78;;;32.10;70.50
41866;BME280;27539;43.222;27.558;2023-08-31T09:25:43;99857.69;;;31.36;66.14
41866;BME280;27539;43.222;27.558;2023-08-31T09:28:11;99880.78;;;31.58;77.46
41866;BME280;27539;43.222;27.558;2023-08-31T09:30:37;99912.81;;;31.74;74.29
41866;BME280;27539;43.222;27.558;2023-08-31T09:33:04;99922.22;;;31.53;69.16
41866;BME280;27539;43.222;27.558;2023-08-31T09:35:30;99919.41;;;31.82;75.99
41866;BME280;27539;43.222;27.558;2023-08-31T09:37:56;99897.66;;;31.84;70.48
41866;BME280;27539;43.222;27.558;2023-08-31T09:40:22;99914.13;;;32.13;72.69
41866;BME280;27539;43.222;27.558;2023-08-31T09:42:50;99898.53;;;32.14;68.41
41866;BME280;27539;43.222;27.558;2023-08-31T09:45:38;99908.31;;;31.73;64.63
41866;BME280;27539;43.222;27.558;2023-08-31T09:48:04;99908.69;;;31.61;71.90
41866;BME280;27539;43.222;27.558;2023-08-31T09:50:32;99890.25;;;31.80;70.93
41866;BME280;27539;43.222;27.558;2023-08-31T09:53:05;99922.78;;;32.09;73.26
41866;BME280;27539;43.222;27.558;2023-08-31T09:55:35;99926.47;;;31.95;70.98
41866;BME280;27539;43.222;27.558;2023-08-31T09:58:01;99937.47;;;31.72;70.01
41866;BME280;27539;43.222;27.558;2023-08-31T10:00:31;99920.97;;;31.47;67.16
41866;BME280;27539;43.222;27.558;2023-08-31T10:03:01;99930.91;;;31.71;74.86
41866;BME280;27539;43.222;27.558;2023-08-31T10:05:28;99930.16;;;32.10;76.51
41866;BME280;27539;43.222;27.558;2023-08-31T10:07:54;99931.03;;;32.50;74.76
41866;BME280;27539;43.222;27.558;2023-08-31T10:10:19;99935.94;;;32.82;71.88
41866;BME280;27539;43.222;27.558;2023-08-31T10:12:48;99932.66;;;32.72;65.93
41866;BME280;27539;43.222;27.558;2023-08-31T10:15:16;99929.75;;;32.47;71.96
41866;BME280;27539;43.222;27.558;2023-08-31T10:17:42;99943.34;;;32.22;73.00
41866;BME280;27539;43.222;27.558;2023-08-31T10:20:09;99947.78;;;31.83;74.73
41866;BME280;27539;43.222;27.558;2023-08-31T10:22:36;99932.47;;;31.43;79.17
41866;BME280;27539;43.222;27.558;2023-08-31T10:25:04;99934.56;;;31.61;81.31
41866;BME280;27539;43.222;27.558;2023-08-31T10:27:41;99924.69;;;31.48;85.51
41866;BME280;27539;43.222;27.558;2023-08-31T10:35:48;99926.25;;;31.38;89.98
41866;BME280;27539;43.222;27.558;2023-08-31T10:38:15;99918.97;;;31.69;88.35
41866;BME280;27539;43.222;27.558;2023-08-31T10:40:41;99906.81;;;31.10;87.02
41866;BME280;27539;43.222;27.558;2023-08-31T10:43:15;99919.41;;;30.87;87.43
41866;BME280;27539;43.222;27.558;2023-08-31T10:45:44;99933.91;;;31.12;85.63
41866;BME280;27539;43.222;27.558;2023-08-31T10:48:10;99929.06;;;31.27;85.62
41866;BME280;27539;43.222;27.558;2023-08-31T10:50:42;99939.03;;;31.44;82.93
41866;BME280;27539;43.222;27.558;2023-08-31T10:53:09;99924.66;;;31.44;83.07
41866;BME280;27539;43.222;27.558;2023-08-31T10:55:52;99938.78;;;31.99;78.81
41866;BME280;27539;43.222;27.558;2023-08-31T10:58:18;99938.38;;;31.94;77.71
41866;BME280;27539;43.222;27.558;2023-08-31T11:03:13;99931.75;;;31.75;73.56
41866;BME280;27539;43.222;27.558;2023-08-31T11:05:53;99950.31;;;32.03;76.62
41866;BME280;27539;43.222;27.558;2023-08-31T11:08:25;99949.91;;;32.22;70.41
41866;BME280;27539;43.222;27.558;2023-08-31T11:10:54;99942.50;;;32.43;70.04
41866;BME280;27539;43.222;27.558;2023-08-31T11:13:20;99924.41;;;32.10;69.36
41866;BME280;27539;43.222;27.558;2023-08-31T11:15:46;99946.22;;;32.25;71.75
41866;BME280;27539;43.222;27.558;2023-08-31T11:18:12;99955.97;;;31.85;66.80
41866;BME280;27539;43.222;27.558;2023-08-31T11:20:37;99941.16;;;31.72;67.32
41866;BME280;27539;43.222;27.558;2023-08-31T11:23:03;99940.44;;;31.97;65.74
41866;BME280;27539;43.222;27.558;2023-08-31T11:25:31;99947.03;;;32.15;68.11
41866;BME280;27539;43.222;27.558;2023-08-31T11:30:28;99936.34;;;32.37;61.89
41866;BME280;27539;43.222;27.558;2023-08-31T11:32:56;99914.56;;;32.33;63.73
41866;BME280;27539;43.222;27.558;2023-08-31T11:35:23;99924.00;;;32.47;60.00
41866;BME280;27539;43.222;27.558;2023-08-31T11:37:51;99947.47;;;32.75;63.14
41866;BME280;27539;43.222;27.558;2023-08-31T11:40:17;99930.59;;;32.73;62.10
41866;BME280;27539;43.222;27.558;2023-08-31T11:42:42;99933.44;;;32.98;60.33
41866;BME280;27539;43.222;27.558;2023-08-31T11:45:10;99919.44;;;33.11;58.51
41866;BME280;27539;43.222;27.558;2023-08-31T11:47:36;99907.91;;;33.04;57.11
41866;BME280;27539;43.222;27.558;2023-08-31T11:50:06;99925.25;;;32.25;60.82
41866;BME280;27539;43.222;27.558;2023-08-31T11:52:32;99919.91;;;32.09;59.40
41866;BME280;27539;43.222;27.558;2023-08-31T11:54:57;99931.38;;;31.95;62.89
41866;BME280;27539;43.222;27.558;2023-08-31T11:57:27;99923.44;;;31.45;66.07
41866;BME280;27539;43.222;27.558;2023-08-31T11:59:54;99901.56;;;31.23;70.84
41866;BME280;27539;43.222;27.558;2023-08-31T12:02:20;99939.06;;;31.55;72.49
41866;BME280;27539;43.222;27.558;2023-08-31T12:04:46;99930.91;;;31.71;69.88
41866;BME280;27539;43.222;27.558;2023-08-31T12:07:16;99929.75;;;31.97;69.92
41866;BME280;27539;43.222;27.558;2023-08-31T12:09:42;99916.53;;;31.93;66.34
41866;BME280;27539;43.222;27.558;2023-08-31T12:12:10;99894.31;;;31.54;70.49
41866;BME280;27539;43.222;27.558;2023-08-31T12:14:37;99934.84;;;31.34;69.63
41866;BME280;27539;43.222;27.558;2023-08-31T12:17:06;99927.03;;;31.35;72.71
41866;BME280;27539;43.222;27.558;2023-08-31T12:19:32;99923.03;;;31.47;73.09
41866;BME280;27539;43.222;27.558;2023-08-31T12:21:58;99905.06;;;30.87;75.11
41866;BME280;27539;43.222;27.558;2023-08-31T12:24:24;99927.31;;;31.01;75.82
41866;BME280;27539;43.222;27.558;2023-08-31T12:26:50;99924.13;;;31.24;73.67
41866;BME280;27539;43.222;27.558;2023-08-31T12:29:16;99933.91;;;31.05;70.93
41866;BME280;27539;43.222;27.558;2023-08-31T12:31:42;99922.03;;;31.10;73.46
41866;BME280;27539;43.222;27.558;2023-08-31T12:34:08;99911.31;;;31.00;73.81
41866;BME280;27539;43.222;27.558;2023-08-31T12:36:34;99920.41;;;31.16;75.21
41866;BME280;27539;43.222;27.558;2023-08-31T12:39:02;99912.56;;;31.10;75.77
41866;BME280;27539;43.222;27.558;2023-08-31T12:41:31;99917.22;;;31.36;74.18
41866;BME280;27539;43.222;27.558;2023-08-31T12:43:56;99905.00;;;31.68;74.60
41866;BME280;27539;43.222;27.558;2023-08-31T12:46:23;99893.56;;;32.00;68.94
41866;BME280;27539;43.222;27.558;2023-08-31T12:48:48;99893.59;;;32.32;67.45
41866;BME280;27539;43.222;27.558;2023-08-31T12:51:15;99896.47;;;32.25;65.17
41866;BME280;27539;43.222;27.558;2023-08-31T12:53:40;99862.72;;;31.90;64.70
41866;BME280;27539;43.222;27.558;2023-08-31T12:56:06;99877.56;;;32.13;67.25
41866;BME280;27539;43.222;27.558;2023-08-31T12:58:32;99884.13;;;32.10;65.48
41866;BME280;27539;43.222;27.558;2023-08-31T13:00:58;99862.34;;;32.09;63.04
41866;BME280;27539;43.222;27.558;2023-08-31T13:03:24;99894.00;;;32.38;64.14
41866;BME280;27539;43.222;27.558;2023-08-31T13:05:50;99896.03;;;32.44;64.16